createdAt,value
2022-09-11T00:00:31.096Z,13.80
2022-09-11T00:02:57.763Z,13.80
2022-09-11T00:05:26.007Z,13.80
2022-09-11T00:07:52.745Z,13.70
2022-09-11T00:10:19.745Z,13.80
2022-09-11T00:12:46.979Z,13.80
2022-09-11T00:15:13.656Z,13.80
2022-09-11T00:17:40.247Z,13.90
2022-09-11T00:20:07.038Z,13.80
2022-09-11T00:22:33.793Z,13.80
2022-09-11T00:25:00.417Z,13.70
2022-09-11T00:27:27.270Z,13.70
2022-09-11T00:29:54.368Z,13.70
2022-09-11T00:32:21.206Z,13.70
2022-09-11T00:34:47.816Z,13.70
2022-09-11T00:37:14.472Z,13.70
2022-09-11T00:39:41.706Z,13.70
2022-09-11T00:42:09.572Z,13.60
2022-09-11T00:44:36.148Z,13.60
2022-09-11T00:47:06.112Z,13.60
2022-09-11T00:49:36.054Z,13.60
2022-09-11T00:52:04.954Z,13.60
2022-09-11T00:54:34.122Z,13.50
2022-09-11T00:57:03.114Z,13.40
2022-09-11T00:59:30.539Z,13.40
2022-09-11T01:01:57.407Z,13.30
2022-09-11T01:04:24.150Z,13.30
2022-09-11T01:06:52.787Z,13.40
2022-09-11T01:09:20.905Z,13.30
2022-09-11T01:11:53.522Z,13.20
2022-09-11T01:14:39.061Z,13.10
2022-09-11T01:17:12.896Z,13.00
2022-09-11T01:19:47.048Z,13.00
2022-09-11T01:22:13.825Z,12.90
2022-09-11T01:24:40.434Z,12.90
2022-09-11T01:27:14.620Z,12.80
2022-09-11T01:29:59.226Z,12.80
2022-09-11T01:32:49.265Z,12.80
2022-09-11T01:35:25.041Z,12.80
2022-09-11T01:37:56.041Z,12.80
2022-09-11T01:40:37.242Z,12.90
2022-09-11T01:43:06.430Z,12.80
2022-09-11T01:45:37.328Z,12.80
2022-09-11T01:48:04.936Z,12.70
2022-09-11T01:50:32.801Z,12.60
2022-09-11T01:53:02.062Z,12.60
2022-09-11T01:55:34.753Z,12.70
2022-09-11T01:58:15.548Z,12.60
2022-09-11T02:00:44.725Z,12.60
2022-09-11T02:03:29.816Z,12.60
2022-09-11T02:06:08.352Z,12.60
2022-09-11T02:08:58.686Z,12.60
2022-09-11T02:11:25.364Z,12.50
2022-09-11T02:13:57.261Z,12.50
2022-09-11T02:16:44.100Z,12.50
2022-09-11T02:19:15.621Z,12.40
2022-09-11T02:21:42.843Z,12.40
2022-09-11T02:24:09.820Z,12.40
2022-09-11T02:26:39.614Z,12.40
2022-09-11T02:29:06.322Z,12.40
2022-09-11T02:31:33.242Z,12.30
2022-09-11T02:33:59.927Z,12.30
2022-09-11T02:36:36.283Z,12.30
2022-09-11T02:39:15.060Z,12.40
2022-09-11T02:41:42.073Z,12.40
2022-09-11T02:44:27.424Z,12.60
2022-09-11T02:47:20.397Z,12.60
2022-09-11T02:49:46.981Z,12.60
2022-09-11T02:52:43.280Z,12.70
2022-09-11T02:55:28.819Z,12.60
2022-09-11T02:58:04.404Z,12.60
2022-09-11T03:00:31.294Z,12.70
2022-09-11T03:02:58.038Z,12.70
2022-09-11T03:05:24.647Z,12.70
2022-09-11T03:07:51.910Z,12.70
2022-09-11T03:10:18.570Z,12.70
2022-09-11T03:12:45.184Z,12.60
2022-09-11T03:15:12.082Z,12.60
2022-09-11T03:17:38.687Z,12.60
2022-09-11T03:20:05.598Z,12.60
2022-09-11T03:22:32.235Z,12.60
2022-09-11T03:24:58.922Z,12.60
2022-09-11T03:27:25.534Z,12.60
2022-09-11T03:29:52.172Z,12.70
2022-09-11T03:32:18.796Z,12.70
2022-09-11T03:34:47.608Z,12.70
2022-09-11T03:37:15.892Z,12.80
2022-09-11T03:39:43.510Z,12.80
2022-09-11T03:42:13.111Z,12.80
2022-09-11T03:44:41.125Z,12.90
2022-09-11T03:47:07.771Z,12.90
2022-09-11T03:49:34.408Z,12.90
2022-09-11T03:52:01.524Z,12.90
2022-09-11T03:54:28.634Z,12.90
2022-09-11T03:56:55.281Z,12.90
2022-09-11T03:59:22.148Z,12.90
2022-09-11T04:01:50.140Z,12.90
2022-09-11T04:04:17.318Z,12.90
2022-09-11T04:06:44.114Z,12.90
2022-09-11T04:09:10.796Z,12.90
2022-09-11T04:11:40.455Z,12.90
2022-09-11T04:14:07.404Z,12.90
2022-09-11T04:16:34.067Z,12.90
2022-09-11T04:19:03.823Z,12.90
2022-09-11T04:21:31.186Z,12.90
2022-09-11T04:24:00.312Z,12.90
2022-09-11T04:26:28.718Z,12.90
2022-09-11T04:28:55.352Z,13.00
2022-09-11T04:31:22.597Z,13.10
2022-09-11T04:33:49.497Z,13.00
2022-09-11T04:36:18.074Z,13.00
2022-09-11T04:38:45.271Z,13.00
2022-09-11T04:41:11.957Z,13.00
2022-09-11T04:43:39.159Z,13.00
2022-09-11T04:46:07.005Z,13.00
2022-09-11T04:48:33.948Z,13.10
2022-09-11T04:51:00.602Z,13.00
2022-09-11T04:53:28.965Z,13.10
2022-09-11T04:56:10.467Z,13.10
2022-09-11T04:58:37.104Z,13.10
2022-09-11T05:01:10.406Z,13.10
2022-09-11T05:03:37.201Z,13.10
2022-09-11T05:06:05.624Z,13.10
2022-09-11T05:08:33.718Z,13.10
2022-09-11T05:11:00.777Z,13.10
2022-09-11T05:13:27.950Z,13.10
2022-09-11T05:16:00.128Z,13.10
2022-09-11T05:18:26.753Z,13.20
2022-09-11T05:21:06.756Z,13.20
2022-09-11T05:23:34.234Z,13.30
2022-09-11T05:26:02.445Z,13.30
2022-09-11T05:28:29.756Z,13.40
2022-09-11T05:30:57.095Z,13.40
2022-09-11T05:33:24.462Z,13.40
2022-09-11T05:35:52.077Z,13.50
2022-09-11T05:38:19.374Z,13.50
2022-09-11T05:40:48.355Z,13.60
2022-09-11T05:43:15.651Z,13.60
2022-09-11T05:45:43.119Z,13.70
2022-09-11T05:48:10.248Z,13.70
2022-09-11T05:50:37.384Z,13.70
2022-09-11T05:53:05.479Z,13.80
2022-09-11T05:55:37.953Z,13.90
2022-09-11T05:58:05.061Z,13.90
2022-09-11T06:00:32.351Z,14.00
2022-09-11T06:02:59.070Z,14.00
2022-09-11T06:05:25.676Z,14.00
2022-09-11T06:07:52.292Z,14.10
2022-09-11T06:10:18.873Z,14.20
2022-09-11T06:12:45.541Z,14.30
2022-09-11T06:15:30.132Z,14.40
2022-09-11T06:17:59.574Z,14.40
2022-09-11T06:20:26.207Z,14.50
2022-09-11T06:22:53.240Z,14.50
2022-09-11T06:25:19.867Z,14.60
2022-09-11T06:27:46.928Z,14.60
2022-09-11T06:30:13.546Z,14.70
2022-09-11T06:32:40.245Z,14.90
2022-09-11T06:35:07.113Z,15.00
2022-09-11T06:37:33.806Z,15.10
2022-09-11T06:40:00.490Z,15.10
2022-09-11T06:42:28.088Z,15.10
2022-09-11T06:44:54.801Z,15.20
2022-09-11T06:47:21.485Z,15.20
2022-09-11T06:49:48.127Z,15.30
2022-09-11T06:52:14.788Z,15.20
2022-09-11T06:54:41.709Z,15.20
2022-09-11T06:57:08.323Z,15.20
2022-09-11T06:59:34.960Z,15.20
2022-09-11T07:02:01.728Z,15.10
2022-09-11T07:04:28.676Z,15.20
2022-09-11T07:06:55.296Z,15.10
2022-09-11T07:09:22.000Z,15.10
2022-09-11T07:11:48.637Z,15.10
2022-09-11T07:14:21.132Z,15.10
2022-09-11T07:16:52.953Z,15.00
2022-09-11T07:19:19.609Z,15.00
2022-09-11T07:21:46.391Z,15.00
2022-09-11T07:24:13.174Z,14.90
2022-09-11T07:26:39.909Z,14.90
2022-09-11T07:29:06.648Z,14.90
2022-09-11T07:31:34.382Z,14.90
2022-09-11T07:34:02.765Z,14.90
2022-09-11T07:36:30.602Z,14.80
2022-09-11T07:38:57.769Z,14.90
2022-09-11T07:41:25.288Z,15.00
2022-09-11T07:43:53.224Z,14.90
2022-09-11T07:46:19.991Z,15.00
2022-09-11T07:48:47.585Z,15.00
2022-09-11T07:51:15.763Z,14.90
2022-09-11T07:53:50.085Z,14.90
2022-09-11T07:56:18.598Z,14.90
2022-09-11T07:58:45.428Z,15.00
2022-09-11T08:01:13.868Z,15.00
2022-09-11T08:03:40.669Z,15.10
2022-09-11T08:06:08.916Z,15.10
2022-09-11T08:08:36.936Z,15.10
2022-09-11T08:11:13.807Z,15.10
2022-09-11T08:13:40.498Z,15.20
2022-09-11T08:16:07.641Z,15.30
2022-09-11T08:18:37.842Z,15.50
2022-09-11T08:21:07.628Z,15.50
2022-09-11T08:23:37.098Z,15.40
2022-09-11T08:26:11.508Z,15.40
2022-09-11T08:28:38.776Z,15.50
2022-09-11T08:31:06.261Z,15.60
2022-09-11T08:33:33.426Z,15.60
2022-09-11T08:36:00.924Z,15.60
2022-09-11T08:38:28.054Z,15.60
2022-09-11T08:40:56.112Z,15.50
2022-09-11T08:43:22.856Z,15.40
2022-09-11T08:45:51.644Z,15.40
2022-09-11T08:48:22.160Z,15.40
2022-09-11T08:50:49.541Z,15.50
2022-09-11T08:53:18.749Z,15.60
2022-09-11T08:55:48.772Z,15.50
2022-09-11T08:58:30.410Z,15.60
2022-09-11T09:01:03.259Z,15.70
2022-09-11T09:03:39.049Z,15.80
2022-09-11T09:06:14.817Z,15.80
2022-09-11T09:08:41.917Z,15.60
2022-09-11T09:11:29.111Z,15.80
2022-09-11T09:13:58.782Z,15.80
2022-09-11T09:16:34.567Z,16.00
2022-09-11T09:19:08.671Z,16.10
2022-09-11T09:21:35.389Z,16.20
2022-09-11T09:24:05.268Z,16.20
2022-09-11T09:26:39.944Z,16.20
2022-09-11T09:29:09.825Z,16.20
2022-09-11T09:31:39.025Z,16.20
2022-09-11T09:34:17.401Z,16.20
2022-09-11T09:36:53.533Z,16.40
2022-09-11T09:39:20.192Z,16.50
2022-09-11T09:41:56.544Z,16.50
2022-09-11T09:44:30.141Z,16.50
2022-09-11T09:46:56.793Z,16.60
2022-09-11T09:49:27.644Z,16.50
2022-09-11T09:51:55.176Z,16.60
2022-09-11T09:54:24.117Z,16.70
2022-09-11T09:56:56.938Z,16.70
2022-09-11T09:59:30.943Z,16.70
2022-09-11T10:01:58.159Z,16.50
2022-09-11T10:04:27.165Z,16.50
2022-09-11T10:07:05.992Z,16.50
2022-09-11T10:09:33.280Z,16.50
2022-09-11T10:12:06.346Z,16.50
2022-09-11T10:14:51.739Z,16.50
2022-09-11T10:17:29.203Z,16.40
2022-09-11T10:19:57.947Z,16.30
2022-09-11T10:22:26.372Z,16.10
2022-09-11T10:25:00.260Z,15.80
2022-09-11T10:27:29.041Z,15.50
2022-09-11T10:29:55.790Z,15.50
2022-09-11T10:32:24.629Z,15.40
2022-09-11T10:34:52.985Z,15.30
2022-09-11T10:37:25.092Z,15.30
2022-09-11T10:39:52.355Z,15.30
2022-09-11T10:42:21.108Z,15.40
2022-09-11T10:44:48.478Z,15.40
2022-09-11T10:47:15.978Z,15.40
2022-09-11T10:49:42.926Z,15.40
2022-09-11T10:52:09.547Z,15.50
2022-09-11T10:54:39.411Z,15.60
2022-09-11T10:57:06.145Z,15.70
2022-09-11T10:59:36.780Z,15.80
2022-09-11T11:02:03.917Z,15.90
2022-09-11T11:04:32.217Z,16.00
2022-09-11T11:07:06.238Z,16.10
2022-09-11T11:09:36.062Z,16.10
2022-09-11T11:12:31.782Z,16.10
2022-09-11T11:15:19.847Z,16.10
2022-09-11T11:17:50.324Z,16.30
2022-09-11T11:20:35.851Z,16.20
2022-09-11T11:23:16.406Z,16.20
2022-09-11T11:25:46.586Z,16.10
2022-09-11T11:28:28.602Z,16.20
2022-09-11T11:30:58.865Z,16.30
2022-09-11T11:33:31.976Z,16.60
2022-09-11T11:36:10.546Z,16.50
2022-09-11T11:38:43.659Z,16.70
2022-09-11T11:41:15.272Z,16.70
2022-09-11T11:43:43.495Z,16.60
2022-09-11T11:46:38.908Z,16.60
2022-09-11T11:49:11.366Z,16.60
2022-09-11T11:51:44.699Z,16.70
2022-09-11T11:54:22.349Z,16.80
2022-09-11T11:56:50.401Z,16.90
2022-09-11T11:59:36.812Z,16.80
2022-09-11T12:02:09.475Z,16.80
2022-09-11T12:04:42.641Z,16.80
2022-09-11T12:07:19.257Z,16.70
2022-09-11T12:09:47.260Z,16.80
2022-09-11T12:12:14.067Z,16.60
2022-09-11T12:14:48.205Z,16.40
2022-09-11T12:17:18.001Z,16.30
2022-09-11T12:20:03.910Z,16.20
2022-09-11T12:22:34.267Z,16.10
2022-09-11T12:25:00.970Z,16.20
2022-09-11T12:27:33.890Z,16.10
2022-09-11T12:30:15.849Z,16.10
2022-09-11T12:32:53.529Z,16.20
2022-09-11T12:35:32.950Z,16.10
2022-09-11T12:38:02.809Z,16.10
2022-09-11T12:40:37.658Z,15.80
2022-09-11T12:43:20.619Z,15.70
2022-09-11T12:45:48.337Z,15.70
2022-09-11T12:48:16.789Z,15.60
2022-09-11T12:50:54.225Z,15.80
2022-09-11T12:53:29.468Z,15.90
2022-09-11T12:55:58.193Z,16.10
2022-09-11T12:58:31.322Z,16.10
2022-09-11T13:01:02.961Z,16.20
2022-09-11T13:03:30.055Z,16.20
2022-09-11T13:06:00.166Z,16.40
2022-09-11T13:08:28.726Z,16.50
2022-09-11T13:11:15.488Z,16.60
2022-09-11T13:13:44.218Z,16.40
2022-09-11T13:16:18.495Z,16.50
2022-09-11T13:18:45.347Z,16.50
2022-09-11T13:21:13.435Z,16.60
2022-09-11T13:23:42.962Z,16.70
2022-09-11T13:26:23.550Z,16.70
2022-09-11T13:28:51.598Z,16.70
2022-09-11T13:31:19.972Z,16.90
2022-09-11T13:33:51.110Z,17.00
2022-09-11T13:36:20.497Z,17.10
2022-09-11T13:38:52.662Z,17.30
2022-09-11T13:41:22.143Z,17.40
2022-09-11T13:43:50.851Z,17.60
2022-09-11T13:46:31.702Z,17.70
2022-09-11T13:49:18.678Z,17.60
2022-09-11T13:51:46.535Z,17.40
2022-09-11T13:54:15.274Z,17.20
2022-09-11T13:56:47.632Z,17.30
2022-09-11T13:59:32.786Z,17.30
2022-09-11T14:02:02.506Z,17.20
2022-09-11T14:04:29.328Z,17.10
2022-09-11T14:06:56.064Z,17.10
2022-09-11T14:09:23.102Z,17.00
2022-09-11T14:11:50.110Z,16.90
2022-09-11T14:14:27.138Z,16.90
2022-09-11T14:16:56.062Z,16.90
2022-09-11T14:19:24.773Z,16.90
2022-09-11T14:21:51.755Z,16.90
2022-09-11T14:24:25.604Z,17.00
2022-09-11T14:26:52.354Z,17.10
2022-09-11T14:29:26.388Z,17.10
2022-09-11T14:31:53.306Z,17.30
2022-09-11T14:34:21.071Z,17.30
2022-09-11T14:36:52.850Z,17.20
2022-09-11T14:39:24.866Z,17.30
2022-09-11T14:41:52.468Z,17.20
2022-09-11T14:44:20.042Z,17.30
2022-09-11T14:46:46.693Z,17.40
2022-09-11T14:49:13.335Z,17.40
2022-09-11T14:51:41.014Z,17.30
2022-09-11T14:54:12.906Z,17.30
2022-09-11T14:56:40.360Z,17.20
2022-09-11T14:59:07.245Z,16.90
2022-09-11T15:01:33.905Z,16.80
2022-09-11T15:04:01.873Z,16.70
2022-09-11T15:06:28.490Z,16.60
2022-09-11T15:08:55.117Z,16.60
2022-09-11T15:11:21.790Z,16.60
2022-09-11T15:14:13.260Z,16.70
2022-09-11T15:16:35.445Z,16.80
2022-09-11T15:19:02.066Z,16.90
2022-09-11T15:21:28.746Z,17.20
2022-09-11T15:23:55.697Z,17.30
2022-09-11T15:26:22.570Z,17.30
2022-09-11T15:28:51.025Z,17.40
2022-09-11T15:31:18.559Z,17.20
2022-09-11T15:33:51.820Z,17.10
2022-09-11T15:36:18.677Z,17.00
2022-09-11T15:38:54.905Z,16.90
2022-09-11T15:41:25.453Z,16.80
2022-09-11T15:43:52.564Z,16.70
2022-09-11T15:46:19.948Z,16.70
2022-09-11T15:48:46.949Z,16.70
2022-09-11T15:51:14.517Z,16.70
2022-09-11T15:53:41.138Z,16.60
2022-09-11T15:56:15.354Z,16.50
2022-09-11T15:58:43.918Z,16.60
2022-09-11T16:01:39.834Z,16.60
2022-09-11T16:04:10.783Z,16.50
2022-09-11T16:06:39.318Z,16.50
2022-09-11T16:09:12.138Z,16.50
2022-09-11T16:11:41.696Z,16.40
2022-09-11T16:14:14.631Z,16.50
2022-09-11T16:16:41.236Z,16.40
2022-09-11T16:19:07.878Z,16.30
2022-09-11T16:21:34.581Z,16.30
2022-09-11T16:24:01.862Z,16.20
2022-09-11T16:26:29.955Z,16.20
2022-09-11T16:28:57.049Z,16.20
2022-09-11T16:31:23.744Z,16.20
2022-09-11T16:33:50.520Z,16.10
2022-09-11T16:36:18.513Z,16.10
2022-09-11T16:38:45.773Z,16.10
2022-09-11T16:41:14.099Z,16.00
2022-09-11T16:43:41.269Z,15.90
2022-09-11T16:49:02.064Z,15.80
2022-09-11T16:51:29.752Z,15.80
2022-09-11T16:53:56.987Z,15.70
2022-09-11T16:56:25.840Z,15.70
2022-09-11T16:58:52.630Z,15.60
2022-09-11T17:01:21.078Z,15.60
2022-09-11T17:03:49.011Z,15.60
2022-09-11T17:06:16.746Z,15.50
2022-09-11T17:08:44.773Z,15.40
2022-09-11T17:11:13.814Z,15.30
2022-09-11T17:13:41.555Z,15.10
2022-09-11T17:16:12.658Z,15.10
2022-09-11T17:18:44.687Z,15.00
2022-09-11T17:21:12.439Z,14.90
2022-09-11T17:23:39.712Z,14.90
2022-09-11T17:26:07.655Z,14.80
2022-09-11T17:28:36.213Z,14.70
2022-09-11T17:31:04.082Z,14.60
2022-09-11T17:33:32.320Z,14.60
2022-09-11T17:35:59.678Z,14.50
2022-09-11T17:38:26.308Z,14.50
2022-09-11T17:41:00.189Z,14.40
2022-09-11T17:43:27.023Z,14.40
2022-09-11T17:46:00.200Z,14.40
2022-09-11T17:48:26.850Z,14.30
2022-09-11T17:50:59.950Z,14.20
2022-09-11T17:53:26.948Z,14.20
2022-09-11T17:55:59.338Z,14.10
2022-09-11T17:58:26.071Z,14.20
2022-09-11T18:00:52.907Z,14.20
2022-09-11T18:03:22.673Z,14.10
2022-09-11T18:05:49.477Z,14.10
2022-09-11T18:08:16.075Z,14.00
2022-09-11T18:10:49.160Z,13.90
2022-09-11T18:13:16.125Z,14.00
2022-09-11T18:15:43.872Z,14.00
2022-09-11T18:18:10.506Z,13.90
2022-09-11T18:20:37.219Z,13.70
2022-09-11T18:23:03.936Z,13.60
2022-09-11T18:25:30.557Z,13.50
2022-09-11T18:27:57.370Z,13.50
2022-09-11T18:30:24.091Z,13.50
2022-09-11T18:32:50.820Z,13.40
2022-09-11T18:35:18.870Z,13.50
2022-09-11T18:37:45.626Z,13.50
2022-09-11T18:40:12.427Z,13.40
2022-09-11T18:42:40.916Z,13.40
2022-09-11T18:45:07.997Z,13.30
2022-09-11T18:47:34.965Z,13.20
2022-09-11T18:50:03.803Z,13.10
2022-09-11T18:52:31.483Z,13.10
2022-09-11T18:55:00.061Z,13.20
2022-09-11T18:57:27.109Z,13.20
2022-09-11T18:59:53.769Z,13.10
2022-09-11T19:02:20.624Z,13.00
2022-09-11T19:04:47.359Z,12.90
2022-09-11T19:07:14.815Z,12.90
2022-09-11T19:09:45.682Z,12.80
2022-09-11T19:12:12.670Z,12.80
2022-09-11T19:14:39.356Z,12.80
2022-09-11T19:17:06.135Z,12.80
2022-09-11T19:19:32.750Z,12.70
2022-09-11T19:22:00.301Z,12.70
2022-09-11T19:24:29.546Z,12.60
2022-09-11T19:26:56.597Z,12.60
2022-09-11T19:29:23.232Z,12.50
2022-09-11T19:31:49.888Z,12.60
2022-09-11T19:34:16.942Z,12.60
2022-09-11T19:36:43.748Z,12.60
2022-09-11T19:39:11.353Z,12.60
2022-09-11T19:41:38.735Z,12.60
2022-09-11T19:44:06.494Z,12.60
2022-09-11T19:46:34.281Z,12.50
2022-09-11T19:49:05.857Z,12.50
2022-09-11T19:51:33.874Z,12.50
2022-09-11T19:54:02.687Z,12.40
2022-09-11T19:56:31.301Z,12.40
2022-09-11T19:58:59.812Z,12.40
2022-09-11T20:01:32.338Z,12.40
2022-09-11T20:04:02.022Z,12.30
2022-09-11T20:06:29.720Z,12.30
2022-09-11T20:09:19.864Z,12.40
2022-09-11T20:11:45.423Z,12.30
2022-09-11T20:14:12.945Z,12.30
2022-09-11T20:16:39.769Z,12.20
2022-09-11T20:19:06.558Z,12.20
2022-09-11T20:21:34.157Z,12.20
2022-09-11T20:24:01.076Z,12.20
2022-09-11T20:26:29.338Z,12.30
2022-09-11T20:28:57.752Z,12.30
2022-09-11T20:31:26.521Z,12.20
2022-09-11T20:33:53.242Z,12.20
2022-09-11T20:36:20.010Z,12.30
2022-09-11T20:38:50.276Z,12.40
2022-09-11T20:41:17.116Z,12.40
2022-09-11T20:43:43.986Z,12.30
2022-09-11T20:46:10.927Z,12.30
2022-09-11T20:48:37.912Z,12.40
2022-09-11T20:51:06.154Z,12.50
2022-09-11T20:53:32.894Z,12.60
2022-09-11T20:56:00.551Z,12.60
2022-09-11T20:58:27.242Z,12.60
2022-09-11T21:00:54.048Z,12.60
2022-09-11T21:03:20.850Z,12.60
2022-09-11T21:05:47.475Z,12.70
2022-09-11T21:08:14.103Z,12.80
2022-09-11T21:10:40.876Z,12.80
2022-09-11T21:13:07.594Z,12.80
2022-09-11T21:15:34.230Z,12.80
2022-09-11T21:18:00.818Z,12.80
2022-09-11T21:20:27.536Z,12.80
2022-09-11T21:22:54.430Z,12.80
2022-09-11T21:25:21.012Z,12.80
2022-09-11T21:27:48.367Z,12.80
2022-09-11T21:30:15.360Z,12.80
2022-09-11T21:32:42.015Z,12.80
2022-09-11T21:35:08.920Z,12.80
2022-09-11T21:37:35.674Z,12.80
2022-09-11T21:40:03.697Z,12.80
2022-09-11T21:42:30.377Z,12.80
2022-09-11T21:44:57.107Z,12.80
2022-09-11T21:47:23.830Z,12.80
2022-09-11T21:49:50.517Z,12.80
2022-09-11T21:52:17.146Z,12.70
2022-09-11T21:54:43.792Z,12.60
2022-09-11T21:57:10.453Z,12.70
2022-09-11T21:59:37.061Z,12.60
2022-09-11T22:02:04.207Z,12.60
2022-09-11T22:04:30.957Z,12.60
2022-09-11T22:06:57.572Z,12.60
2022-09-11T22:09:24.246Z,12.60
2022-09-11T22:11:51.132Z,12.60
2022-09-11T22:14:20.287Z,12.60
2022-09-11T22:16:47.729Z,12.60
2022-09-11T22:19:14.509Z,12.50
2022-09-11T22:21:41.368Z,12.50
2022-09-11T22:24:07.986Z,12.50
2022-09-11T22:26:34.658Z,12.50
2022-09-11T22:29:01.490Z,12.50
2022-09-11T22:31:28.946Z,12.50
2022-09-11T22:33:55.845Z,12.40
2022-09-11T22:36:24.672Z,12.40
2022-09-11T22:38:51.490Z,12.30
2022-09-11T22:41:18.814Z,12.30
2022-09-11T22:43:47.484Z,12.30
2022-09-11T22:46:14.606Z,12.40
2022-09-11T22:48:41.214Z,12.40
2022-09-11T22:51:08.526Z,12.40
2022-09-11T22:53:35.507Z,12.30
2022-09-11T22:56:02.281Z,12.40
2022-09-11T22:58:29.275Z,12.40
2022-09-11T23:00:56.569Z,12.40
2022-09-11T23:03:23.385Z,12.50
2022-09-11T23:06:13.714Z,12.50
2022-09-11T23:08:41.217Z,12.40
2022-09-11T23:11:07.971Z,12.50
2022-09-11T23:13:35.194Z,12.50
2022-09-11T23:16:10.174Z,12.60
2022-09-11T23:18:36.789Z,12.60
2022-09-11T23:21:03.492Z,12.60
2022-09-11T23:23:30.090Z,12.60
2022-09-11T23:25:56.802Z,12.60
2022-09-11T23:28:23.399Z,12.70
2022-09-11T23:30:50.048Z,12.70
2022-09-11T23:33:16.797Z,12.70
2022-09-11T23:35:43.423Z,12.70
2022-09-11T23:38:10.447Z,12.70
2022-09-11T23:40:37.186Z,12.70
2022-09-11T23:43:04.096Z,12.70
2022-09-11T23:45:30.747Z,12.70
2022-09-11T23:47:57.370Z,12.70
2022-09-11T23:50:24.073Z,12.70
2022-09-11T23:52:50.703Z,12.70
2022-09-11T23:55:19.061Z,12.70
2022-09-11T23:57:45.846Z,12.70
